sensor_id;sensor_type;location;lat;lon;timestamp;temperature;humidity
78649;DHT22;67962;47.310;9.642;2023-03-04T00:01:58;7.90;64.40
78649;DHT22;67962;47.310;9.642;2023-03-04T00:04:24;7.90;64.50
78649;DHT22;67962;47.310;9.642;2023-03-04T00:06:50;8.00;64.60
78649;DHT22;67962;47.310;9.642;2023-03-04T00:09:16;8.10;64.30
78649;DHT22;67962;47.310;9.642;2023-03-04T00:11:41;8.10;64.10
78649;DHT22;67962;47.310;9.642;2023-03-04T00:14:07;8.20;64.00
78649;DHT22;67962;47.310;9.642;2023-03-04T00:16:33;8.30;63.80
78649;DHT22;67962;47.310;9.642;2023-03-04T00:18:59;8.30;63.60
78649;DHT22;67962;47.310;9.642;2023-03-04T00:21:24;8.30;63.50
78649;DHT22;67962;47.310;9.642;2023-03-04T00:23:50;8.30;63.50
78649;DHT22;67962;47.310;9.642;2023-03-04T00:26:16;8.30;63.50
78649;DHT22;67962;47.310;9.642;2023-03-04T00:28:42;8.30;63.50
78649;DHT22;67962;47.310;9.642;2023-03-04T00:31:08;8.30;63.70
78649;DHT22;67962;47.310;9.642;2023-03-04T00:33:34;8.30;63.80
78649;DHT22;67962;47.310;9.642;2023-03-04T00:36:01;8.30;63.60
78649;DHT22;67962;47.310;9.642;2023-03-04T00:38:27;8.30;63.40
78649;DHT22;67962;47.310;9.642;2023-03-04T00:40:53;8.30;63.50
78649;DHT22;67962;47.310;9.642;2023-03-04T00:43:19;8.30;64.80
78649;DHT22;67962;47.310;9.642;2023-03-04T00:45:45;8.90;69.60
78649;DHT22;67962;47.310;9.642;2023-03-04T00:48:10;9.20;64.10
78649;DHT22;67962;47.310;9.642;2023-03-04T00:50:37;9.10;63.00
78649;DHT22;67962;47.310;9.642;2023-03-04T00:53:03;9.00;62.80
78649;DHT22;67962;47.310;9.642;2023-03-04T00:55:29;8.90;62.30
78649;DHT22;67962;47.310;9.642;2023-03-04T00:57:55;8.70;62.40
78649;DHT22;67962;47.310;9.642;2023-03-04T01:00:21;8.70;62.70
78649;DHT22;67962;47.310;9.642;2023-03-04T01:02:46;8.60;62.90
78649;DHT22;67962;47.310;9.642;2023-03-04T01:05:12;8.60;63.00
78649;DHT22;67962;47.310;9.642;2023-03-04T01:07:38;8.50;63.00
78649;DHT22;67962;47.310;9.642;2023-03-04T01:10:06;8.50;63.10
78649;DHT22;67962;47.310;9.642;2023-03-04T01:12:32;8.50;63.00
78649;DHT22;67962;47.310;9.642;2023-03-04T01:14:57;8.50;63.00
78649;DHT22;67962;47.310;9.642;2023-03-04T01:17:23;8.50;62.90
78649;DHT22;67962;47.310;9.642;2023-03-04T01:19:49;8.40;63.00
78649;DHT22;67962;47.310;9.642;2023-03-04T01:22:15;8.40;63.30
78649;DHT22;67962;47.310;9.642;2023-03-04T01:24:43;8.30;63.40
78649;DHT22;67962;47.310;9.642;2023-03-04T01:27:09;8.30;63.40
78649;DHT22;67962;47.310;9.642;2023-03-04T01:29:35;8.20;63.60
78649;DHT22;67962;47.310;9.642;2023-03-04T01:32:01;8.10;63.70
78649;DHT22;67962;47.310;9.642;2023-03-04T01:34:27;8.10;63.80
78649;DHT22;67962;47.310;9.642;2023-03-04T01:36:52;8.00;64.00
78649;DHT22;67962;47.310;9.642;2023-03-04T01:39:18;7.90;64.30
78649;DHT22;67962;47.310;9.642;2023-03-04T01:41:44;7.80;64.60
78649;DHT22;67962;47.310;9.642;2023-03-04T01:44:11;7.80;64.90
78649;DHT22;67962;47.310;9.642;2023-03-04T01:46:37;7.80;64.80
78649;DHT22;67962;47.310;9.642;2023-03-04T01:49:05;7.80;65.10
78649;DHT22;67962;47.310;9.642;2023-03-04T01:51:31;7.90;65.40
78649;DHT22;67962;47.310;9.642;2023-03-04T01:53:57;8.00;64.80
78649;DHT22;67962;47.310;9.642;2023-03-04T01:56:24;8.00;64.60
78649;DHT22;67962;47.310;9.642;2023-03-04T02:01:45;8.00;64.20
78649;DHT22;67962;47.310;9.642;2023-03-04T02:04:11;8.00;64.10
78649;DHT22;67962;47.310;9.642;2023-03-04T02:06:38;7.90;64.30
78649;DHT22;67962;47.310;9.642;2023-03-04T02:09:05;7.90;64.40
78649;DHT22;67962;47.310;9.642;2023-03-04T02:11:31;7.90;64.20
78649;DHT22;67962;47.310;9.642;2023-03-04T02:13:58;7.90;64.10
78649;DHT22;67962;47.310;9.642;2023-03-04T02:16:24;7.90;64.20
78649;DHT22;67962;47.310;9.642;2023-03-04T02:18:50;7.90;64.20
78649;DHT22;67962;47.310;9.642;2023-03-04T02:23:54;7.90;64.10
78649;DHT22;67962;47.310;9.642;2023-03-04T02:26:25;7.90;64.10
78649;DHT22;67962;47.310;9.642;2023-03-04T02:28:54;7.90;64.00
78649;DHT22;67962;47.310;9.642;2023-03-04T02:31:42;7.90;63.40
78649;DHT22;67962;47.310;9.642;2023-03-04T02:34:21;7.70;63.60
78649;DHT22;67962;47.310;9.642;2023-03-04T02:36:50;7.70;64.20
78649;DHT22;67962;47.310;9.642;2023-03-04T02:41:48;7.60;64.10
78649;DHT22;67962;47.310;9.642;2023-03-04T02:46:47;7.50;63.80
78649;DHT22;67962;47.310;9.642;2023-03-04T02:49:13;7.50;64.40
78649;DHT22;67962;47.310;9.642;2023-03-04T02:51:39;7.40;64.40
78649;DHT22;67962;47.310;9.642;2023-03-04T02:54:14;7.30;64.40
78649;DHT22;67962;47.310;9.642;2023-03-04T02:56:47;7.30;64.80
78649;DHT22;67962;47.310;9.642;2023-03-04T02:59:13;7.30;64.70
78649;DHT22;67962;47.310;9.642;2023-03-04T03:01:39;7.20;65.10
78649;DHT22;67962;47.310;9.642;2023-03-04T03:04:05;7.20;65.30
78649;DHT22;67962;47.310;9.642;2023-03-04T03:06:30;7.20;65.00
78649;DHT22;67962;47.310;9.642;2023-03-04T03:08:56;7.10;64.90
78649;DHT22;67962;47.310;9.642;2023-03-04T03:11:22;7.10;65.20
78649;DHT22;67962;47.310;9.642;2023-03-04T03:13:47;7.00;65.50
78649;DHT22;67962;47.310;9.642;2023-03-04T03:16:13;7.00;65.40
78649;DHT22;67962;47.310;9.642;2023-03-04T03:18:39;6.90;65.20
78649;DHT22;67962;47.310;9.642;2023-03-04T03:21:06;6.80;65.30
78649;DHT22;67962;47.310;9.642;2023-03-04T03:23:32;6.80;65.80
78649;DHT22;67962;47.310;9.642;2023-03-04T03:25:58;6.80;65.80
78649;DHT22;67962;47.310;9.642;2023-03-04T03:28:24;6.80;66.20
78649;DHT22;67962;47.310;9.642;2023-03-04T03:30:49;6.80;65.70
78649;DHT22;67962;47.310;9.642;2023-03-04T03:33:15;6.90;65.60
78649;DHT22;67962;47.310;9.642;2023-03-04T03:35:41;6.80;65.40
78649;DHT22;67962;47.310;9.642;2023-03-04T03:38:06;6.90;65.20
78649;DHT22;67962;47.310;9.642;2023-03-04T03:40:32;6.90;65.00
78649;DHT22;67962;47.310;9.642;2023-03-04T03:42:58;6.80;64.80
78649;DHT22;67962;47.310;9.642;2023-03-04T03:45:23;6.70;64.50
78649;DHT22;67962;47.310;9.642;2023-03-04T03:47:49;6.50;64.60
78649;DHT22;67962;47.310;9.642;2023-03-04T03:50:15;6.40;64.70
78649;DHT22;67962;47.310;9.642;2023-03-04T03:52:41;6.30;65.00
78649;DHT22;67962;47.310;9.642;2023-03-04T03:55:07;6.10;65.50
78649;DHT22;67962;47.310;9.642;2023-03-04T03:57:33;6.10;66.00
78649;DHT22;67962;47.310;9.642;2023-03-04T03:59:58;6.00;66.10
78649;DHT22;67962;47.310;9.642;2023-03-04T04:02:24;6.00;66.00
78649;DHT22;67962;47.310;9.642;2023-03-04T04:04:50;6.00;65.40
78649;DHT22;67962;47.310;9.642;2023-03-04T04:07:16;6.00;65.50
78649;DHT22;67962;47.310;9.642;2023-03-04T04:09:41;5.80;65.70
78649;DHT22;67962;47.310;9.642;2023-03-04T04:12:07;5.70;66.20
78649;DHT22;67962;47.310;9.642;2023-03-04T04:14:33;5.70;66.60
78649;DHT22;67962;47.310;9.642;2023-03-04T04:16:59;5.70;66.50
78649;DHT22;67962;47.310;9.642;2023-03-04T04:19:25;5.70;66.00
78649;DHT22;67962;47.310;9.642;2023-03-04T04:21:51;5.60;65.90
78649;DHT22;67962;47.310;9.642;2023-03-04T04:24:16;5.60;66.30
78649;DHT22;67962;47.310;9.642;2023-03-04T04:26:42;5.50;66.40
78649;DHT22;67962;47.310;9.642;2023-03-04T04:29:08;5.40;66.90
78649;DHT22;67962;47.310;9.642;2023-03-04T04:31:34;5.40;66.30
78649;DHT22;67962;47.310;9.642;2023-03-04T04:34:00;5.30;66.30
78649;DHT22;67962;47.310;9.642;2023-03-04T04:36:26;5.20;67.00
78649;DHT22;67962;47.310;9.642;2023-03-04T04:38:52;5.30;67.40
78649;DHT22;67962;47.310;9.642;2023-03-04T04:41:23;5.30;67.10
78649;DHT22;67962;47.310;9.642;2023-03-04T04:43:49;5.30;66.80
78649;DHT22;67962;47.310;9.642;2023-03-04T04:46:16;5.30;66.90
78649;DHT22;67962;47.310;9.642;2023-03-04T04:48:42;5.20;67.30
78649;DHT22;67962;47.310;9.642;2023-03-04T04:51:08;5.20;67.30
78649;DHT22;67962;47.310;9.642;2023-03-04T04:53:34;5.10;66.80
78649;DHT22;67962;47.310;9.642;2023-03-04T04:56:07;5.10;66.90
78649;DHT22;67962;47.310;9.642;2023-03-04T04:58:33;5.00;66.90
78649;DHT22;67962;47.310;9.642;2023-03-04T05:00:59;4.90;67.30
78649;DHT22;67962;47.310;9.642;2023-03-04T05:03:24;4.90;67.60
78649;DHT22;67962;47.310;9.642;2023-03-04T05:05:50;5.00;67.90
78649;DHT22;67962;47.310;9.642;2023-03-04T05:08:16;5.00;67.30
78649;DHT22;67962;47.310;9.642;2023-03-04T05:10:41;4.90;67.40
78649;DHT22;67962;47.310;9.642;2023-03-04T05:13:07;4.80;67.40
78649;DHT22;67962;47.310;9.642;2023-03-04T05:15:33;4.90;67.40
78649;DHT22;67962;47.310;9.642;2023-03-04T05:17:58;4.80;67.80
78649;DHT22;67962;47.310;9.642;2023-03-04T05:20:24;4.80;68.00
78649;DHT22;67962;47.310;9.642;2023-03-04T05:22:51;4.90;68.10
78649;DHT22;67962;47.310;9.642;2023-03-04T05:25:17;4.90;67.60
78649;DHT22;67962;47.310;9.642;2023-03-04T05:27:43;4.90;67.30
78649;DHT22;67962;47.310;9.642;2023-03-04T05:30:09;4.80;67.60
78649;DHT22;67962;47.310;9.642;2023-03-04T05:32:35;4.80;67.50
78649;DHT22;67962;47.310;9.642;2023-03-04T05:35:01;4.80;67.60
78649;DHT22;67962;47.310;9.642;2023-03-04T05:37:26;4.70;67.70
78649;DHT22;67962;47.310;9.642;2023-03-04T05:39:52;4.70;67.60
78649;DHT22;67962;47.310;9.642;2023-03-04T05:42:18;4.70;67.40
78649;DHT22;67962;47.310;9.642;2023-03-04T05:44:43;4.60;67.40
78649;DHT22;67962;47.310;9.642;2023-03-04T05:47:09;4.50;67.60
78649;DHT22;67962;47.310;9.642;2023-03-04T05:49:35;4.50;68.10
78649;DHT22;67962;47.310;9.642;2023-03-04T05:52:00;4.50;68.00
78649;DHT22;67962;47.310;9.642;2023-03-04T05:54:26;4.50;68.30
78649;DHT22;67962;47.310;9.642;2023-03-04T05:56:52;4.50;68.10
78649;DHT22;67962;47.310;9.642;2023-03-04T05:59:19;4.50;67.90
78649;DHT22;67962;47.310;9.642;2023-03-04T06:01:45;4.40;68.00
78649;DHT22;67962;47.310;9.642;2023-03-04T06:04:11;4.40;68.20
78649;DHT22;67962;47.310;9.642;2023-03-04T06:06:37;4.40;68.00
78649;DHT22;67962;47.310;9.642;2023-03-04T06:09:03;4.30;68.00
78649;DHT22;67962;47.310;9.642;2023-03-04T06:11:29;4.30;68.40
78649;DHT22;67962;47.310;9.642;2023-03-04T06:13:54;4.30;68.30
78649;DHT22;67962;47.310;9.642;2023-03-04T06:16:20;4.30;68.30
78649;DHT22;67962;47.310;9.642;2023-03-04T06:18:46;4.40;68.70
78649;DHT22;67962;47.310;9.642;2023-03-04T06:21:11;4.40;68.70
78649;DHT22;67962;47.310;9.642;2023-03-04T06:23:37;4.40;68.00
78649;DHT22;67962;47.310;9.642;2023-03-04T06:26:03;4.30;68.20
78649;DHT22;67962;47.310;9.642;2023-03-04T06:28:29;4.40;68.60
78649;DHT22;67962;47.310;9.642;2023-03-04T06:30:56;4.50;68.40
78649;DHT22;67962;47.310;9.642;2023-03-04T06:33:22;4.50;68.10
78649;DHT22;67962;47.310;9.642;2023-03-04T06:35:47;4.50;68.00
78649;DHT22;67962;47.310;9.642;2023-03-04T06:38:14;4.40;68.10
78649;DHT22;67962;47.310;9.642;2023-03-04T06:40:39;4.40;68.30
78649;DHT22;67962;47.310;9.642;2023-03-04T06:43:05;4.40;68.30
78649;DHT22;67962;47.310;9.642;2023-03-04T06:45:31;4.50;68.30
78649;DHT22;67962;47.310;9.642;2023-03-04T06:47:56;4.50;68.20
78649;DHT22;67962;47.310;9.642;2023-03-04T06:50:22;4.40;68.40
78649;DHT22;67962;47.310;9.642;2023-03-04T06:52:48;4.50;68.60
78649;DHT22;67962;47.310;9.642;2023-03-04T06:55:14;4.60;68.30
78649;DHT22;67962;47.310;9.642;2023-03-04T06:57:39;4.60;68.20
78649;DHT22;67962;47.310;9.642;2023-03-04T07:00:05;4.70;68.00
78649;DHT22;67962;47.310;9.642;2023-03-04T07:02:32;4.60;68.10
78649;DHT22;67962;47.310;9.642;2023-03-04T07:04:57;4.60;68.50
78649;DHT22;67962;47.310;9.642;2023-03-04T07:07:25;4.70;68.50
78649;DHT22;67962;47.310;9.642;2023-03-04T07:09:51;4.90;68.60
78649;DHT22;67962;47.310;9.642;2023-03-04T07:12:17;5.00;68.30
78649;DHT22;67962;47.310;9.642;2023-03-04T07:14:43;5.10;68.30
78649;DHT22;67962;47.310;9.642;2023-03-04T07:17:09;5.20;68.50
78649;DHT22;67962;47.310;9.642;2023-03-04T07:19:35;5.40;68.40
78649;DHT22;67962;47.310;9.642;2023-03-04T07:22:01;5.70;68.20
78649;DHT22;67962;47.310;9.642;2023-03-04T07:24:27;5.90;67.90
78649;DHT22;67962;47.310;9.642;2023-03-04T07:26:52;6.20;67.70
78649;DHT22;67962;47.310;9.642;2023-03-04T07:29:18;6.40;67.20
78649;DHT22;67962;47.310;9.642;2023-03-04T07:31:44;6.70;67.90
78649;DHT22;67962;47.310;9.642;2023-03-04T07:34:11;6.90;66.60
78649;DHT22;67962;47.310;9.642;2023-03-04T07:36:38;7.00;66.20
78649;DHT22;67962;47.310;9.642;2023-03-04T07:39:04;7.00;65.80
78649;DHT22;67962;47.310;9.642;2023-03-04T07:41:31;7.00;65.60
78649;DHT22;67962;47.310;9.642;2023-03-04T07:44:01;7.10;65.90
78649;DHT22;67962;47.310;9.642;2023-03-04T07:46:27;7.10;65.70
78649;DHT22;67962;47.310;9.642;2023-03-04T07:48:56;7.20;65.60
78649;DHT22;67962;47.310;9.642;2023-03-04T07:51:24;7.30;65.30
78649;DHT22;67962;47.310;9.642;2023-03-04T07:53:52;7.40;65.40
78649;DHT22;67962;47.310;9.642;2023-03-04T07:56:20;7.50;65.60
78649;DHT22;67962;47.310;9.642;2023-03-04T07:58:47;7.80;65.70
78649;DHT22;67962;47.310;9.642;2023-03-04T08:01:18;8.00;64.30
78649;DHT22;67962;47.310;9.642;2023-03-04T08:03:44;8.00;64.20
78649;DHT22;67962;47.310;9.642;2023-03-04T08:06:12;8.00;64.20
78649;DHT22;67962;47.310;9.642;2023-03-04T08:08:38;7.90;63.90
78649;DHT22;67962;47.310;9.642;2023-03-04T08:11:06;7.90;64.10
78649;DHT22;67962;47.310;9.642;2023-03-04T08:13:33;7.90;64.00
78649;DHT22;67962;47.310;9.642;2023-03-04T08:15:59;7.90;64.00
78649;DHT22;67962;47.310;9.642;2023-03-04T08:18:24;7.80;64.10
78649;DHT22;67962;47.310;9.642;2023-03-04T08:20:50;7.90;63.70
78649;DHT22;67962;47.310;9.642;2023-03-04T08:23:17;7.90;63.90
78649;DHT22;67962;47.310;9.642;2023-03-04T08:25:43;8.00;64.00
78649;DHT22;67962;47.310;9.642;2023-03-04T08:28:09;8.30;63.90
78649;DHT22;67962;47.310;9.642;2023-03-04T08:30:37;8.50;63.60
78649;DHT22;67962;47.310;9.642;2023-03-04T08:33:03;8.80;63.20
78649;DHT22;67962;47.310;9.642;2023-03-04T08:35:30;9.20;62.50
78649;DHT22;67962;47.310;9.642;2023-03-04T08:37:55;9.40;61.50
78649;DHT22;67962;47.310;9.642;2023-03-04T08:40:21;9.60;61.50
78649;DHT22;67962;47.310;9.642;2023-03-04T08:42:47;9.90;61.10
78649;DHT22;67962;47.310;9.642;2023-03-04T08:45:12;10.20;60.00
78649;DHT22;67962;47.310;9.642;2023-03-04T08:47:38;10.50;59.70
78649;DHT22;67962;47.310;9.642;2023-03-04T08:50:06;10.70;57.90
78649;DHT22;67962;47.310;9.642;2023-03-04T08:52:32;10.90;55.90
78649;DHT22;67962;47.310;9.642;2023-03-04T08:54:57;11.10;55.30
78649;DHT22;67962;47.310;9.642;2023-03-04T08:57:23;11.30;55.90
78649;DHT22;67962;47.310;9.642;2023-03-04T08:59:49;11.50;54.70
78649;DHT22;67962;47.310;9.642;2023-03-04T09:02:15;11.50;53.00
78649;DHT22;67962;47.310;9.642;2023-03-04T09:04:41;11.70;53.80
78649;DHT22;67962;47.310;9.642;2023-03-04T09:07:06;12.00;51.10
78649;DHT22;67962;47.310;9.642;2023-03-04T09:09:34;11.90;51.30
78649;DHT22;67962;47.310;9.642;2023-03-04T09:12:00;12.20;51.60
78649;DHT22;67962;47.310;9.642;2023-03-04T09:14:26;12.50;51.30
78649;DHT22;67962;47.310;9.642;2023-03-04T09:16:51;12.50;49.10
78649;DHT22;67962;47.310;9.642;2023-03-04T09:19:17;12.10;49.40
78649;DHT22;67962;47.310;9.642;2023-03-04T09:21:43;11.60;50.00
78649;DHT22;67962;47.310;9.642;2023-03-04T09:24:08;11.60;50.20
78649;DHT22;67962;47.310;9.642;2023-03-04T09:26:34;11.40;50.20
78649;DHT22;67962;47.310;9.642;2023-03-04T09:29:01;11.30;51.30
78649;DHT22;67962;47.310;9.642;2023-03-04T09:31:28;11.40;52.00
78649;DHT22;67962;47.310;9.642;2023-03-04T09:33:55;11.40;50.40
78649;DHT22;67962;47.310;9.642;2023-03-04T09:36:22;11.30;51.80
78649;DHT22;67962;47.310;9.642;2023-03-04T09:38:48;11.40;51.60
78649;DHT22;67962;47.310;9.642;2023-03-04T09:41:25;11.60;51.60
78649;DHT22;67962;47.310;9.642;2023-03-04T09:43:55;11.80;50.10
78649;DHT22;67962;47.310;9.642;2023-03-04T09:46:48;11.70;49.40
78649;DHT22;67962;47.310;9.642;2023-03-04T09:49:15;11.80;50.80
78649;DHT22;67962;47.310;9.642;2023-03-04T09:54:17;12.00;49.30
78649;DHT22;67962;47.310;9.642;2023-03-04T09:56:45;12.10;49.60
78649;DHT22;67962;47.310;9.642;2023-03-04T09:59:40;12.00;49.40
78649;DHT22;67962;47.310;9.642;2023-03-04T10:02:40;12.00;50.00
78649;DHT22;67962;47.310;9.642;2023-03-04T10:05:14;12.10;48.80
78649;DHT22;67962;47.310;9.642;2023-03-04T10:07:42;12.20;49.10
78649;DHT22;67962;47.310;9.642;2023-03-04T10:10:31;12.20;48.60
78649;DHT22;67962;47.310;9.642;2023-03-04T10:13:00;11.90;48.20
78649;DHT22;67962;47.310;9.642;2023-03-04T10:15:34;11.70;49.30
78649;DHT22;67962;47.310;9.642;2023-03-04T10:18:39;11.80;48.80
78649;DHT22;67962;47.310;9.642;2023-03-04T10:21:49;11.80;49.60
78649;DHT22;67962;47.310;9.642;2023-03-04T10:24:11;12.00;51.20
78649;DHT22;67962;47.310;9.642;2023-03-04T10:26:41;12.30;48.90
78649;DHT22;67962;47.310;9.642;2023-03-04T10:29:15;12.30;49.10
78649;DHT22;67962;47.310;9.642;2023-03-04T10:31:40;12.40;47.80
78649;DHT22;67962;47.310;9.642;2023-03-04T10:34:11;12.40;47.50
78649;DHT22;67962;47.310;9.642;2023-03-04T10:39:29;12.50;49.20
78649;DHT22;67962;47.310;9.642;2023-03-04T10:44:54;12.30;48.40
78649;DHT22;67962;47.310;9.642;2023-03-04T10:47:29;12.20;48.70
78649;DHT22;67962;47.310;9.642;2023-03-04T10:50:00;11.90;48.40
78649;DHT22;67962;47.310;9.642;2023-03-04T10:52:40;11.80;48.40
78649;DHT22;67962;47.310;9.642;2023-03-04T10:55:21;11.60;48.40
78649;DHT22;67962;47.310;9.642;2023-03-04T10:57:51;11.40;50.10
78649;DHT22;67962;47.310;9.642;2023-03-04T11:00:35;11.20;49.70
78649;DHT22;67962;47.310;9.642;2023-03-04T11:06:15;10.70;51.80
78649;DHT22;67962;47.310;9.642;2023-03-04T11:08:42;10.80;51.80
78649;DHT22;67962;47.310;9.642;2023-03-04T11:11:22;10.70;51.50
78649;DHT22;67962;47.310;9.642;2023-03-04T11:13:56;10.70;51.60
78649;DHT22;67962;47.310;9.642;2023-03-04T11:16:25;10.60;52.50
78649;DHT22;67962;47.310;9.642;2023-03-04T11:18:55;10.50;53.30
78649;DHT22;67962;47.310;9.642;2023-03-04T11:21:24;10.50;54.20
78649;DHT22;67962;47.310;9.642;2023-03-04T11:24:00;10.50;52.90
78649;DHT22;67962;47.310;9.642;2023-03-04T11:29:11;10.50;54.60
78649;DHT22;67962;47.310;9.642;2023-03-04T11:31:59;10.60;54.90
78649;DHT22;67962;47.310;9.642;2023-03-04T11:34:36;10.90;55.60
78649;DHT22;67962;47.310;9.642;2023-03-04T11:40:00;11.30;53.50
78649;DHT22;67962;47.310;9.642;2023-03-04T11:42:48;11.30;52.80
78649;DHT22;67962;47.310;9.642;2023-03-04T11:47:58;11.60;52.20
78649;DHT22;67962;47.310;9.642;2023-03-04T11:50:52;11.60;52.00
78649;DHT22;67962;47.310;9.642;2023-03-04T11:56:04;11.70;51.30
78649;DHT22;67962;47.310;9.642;2023-03-04T11:59:16;11.70;52.80
78649;DHT22;67962;47.310;9.642;2023-03-04T12:07:38;11.10;53.10
78649;DHT22;67962;47.310;9.642;2023-03-04T12:13:42;11.00;53.20
78649;DHT22;67962;47.310;9.642;2023-03-04T12:24:49;11.30;52.90
78649;DHT22;67962;47.310;9.642;2023-03-04T12:29:55;11.00;53.40
78649;DHT22;67962;47.310;9.642;2023-03-04T12:45:56;10.80;52.40
78649;DHT22;67962;47.310;9.642;2023-03-04T12:53:29;11.20;53.50
78649;DHT22;67962;47.310;9.642;2023-03-04T12:55:58;11.30;52.90
78649;DHT22;67962;47.310;9.642;2023-03-04T12:58:29;11.30;52.40
78649;DHT22;67962;47.310;9.642;2023-03-04T13:03:56;11.60;53.20
78649;DHT22;67962;47.310;9.642;2023-03-04T13:09:18;12.00;50.90
78649;DHT22;67962;47.310;9.642;2023-03-04T13:11:51;12.10;52.00
78649;DHT22;67962;47.310;9.642;2023-03-04T13:17:51;12.30;50.00
78649;DHT22;67962;47.310;9.642;2023-03-04T13:23:17;12.20;50.80
78649;DHT22;67962;47.310;9.642;2023-03-04T13:25:49;12.20;49.10
78649;DHT22;67962;47.310;9.642;2023-03-04T13:28:36;12.20;49.30
78649;DHT22;67962;47.310;9.642;2023-03-04T13:31:06;12.20;49.20
78649;DHT22;67962;47.310;9.642;2023-03-04T13:36:30;12.30;50.20
78649;DHT22;67962;47.310;9.642;2023-03-04T13:41:53;12.60;47.90
78649;DHT22;67962;47.310;9.642;2023-03-04T13:44:34;12.60;49.60
78649;DHT22;67962;47.310;9.642;2023-03-04T13:47:13;12.80;47.20
78649;DHT22;67962;47.310;9.642;2023-03-04T13:49:39;12.60;47.50
78649;DHT22;67962;47.310;9.642;2023-03-04T13:55:32;12.40;48.90
78649;DHT22;67962;47.310;9.642;2023-03-04T13:57:58;12.40;47.20
78649;DHT22;67962;47.310;9.642;2023-03-04T14:00:25;12.50;48.00
78649;DHT22;67962;47.310;9.642;2023-03-04T14:02:51;12.50;47.00
78649;DHT22;67962;47.310;9.642;2023-03-04T14:05:17;12.50;44.60
78649;DHT22;67962;47.310;9.642;2023-03-04T14:07:43;12.40;47.10
78649;DHT22;67962;47.310;9.642;2023-03-04T14:12:44;12.40;44.20
78649;DHT22;67962;47.310;9.642;2023-03-04T14:17:43;12.30;45.70
78649;DHT22;67962;47.310;9.642;2023-03-04T14:20:22;12.20;45.60
78649;DHT22;67962;47.310;9.642;2023-03-04T14:22:49;12.10;45.50
78649;DHT22;67962;47.310;9.642;2023-03-04T14:27:44;11.90;45.70
78649;DHT22;67962;47.310;9.642;2023-03-04T14:30:29;11.90;45.70
78649;DHT22;67962;47.310;9.642;2023-03-04T14:32:58;12.00;46.70
78649;DHT22;67962;47.310;9.642;2023-03-04T14:35:29;12.00;46.50
78649;DHT22;67962;47.310;9.642;2023-03-04T14:38:27;11.90;46.30
78649;DHT22;67962;47.310;9.642;2023-03-04T14:41:04;11.90;47.40
78649;DHT22;67962;47.310;9.642;2023-03-04T14:43:36;12.00;46.90
78649;DHT22;67962;47.310;9.642;2023-03-04T14:46:07;12.00;46.40
78649;DHT22;67962;47.310;9.642;2023-03-04T14:48:36;11.80;46.50
78649;DHT22;67962;47.310;9.642;2023-03-04T14:51:03;11.80;45.10
78649;DHT22;67962;47.310;9.642;2023-03-04T14:53:30;11.70;46.10
78649;DHT22;67962;47.310;9.642;2023-03-04T14:58:28;11.70;47.20
78649;DHT22;67962;47.310;9.642;2023-03-04T15:03:41;11.60;47.10
78649;DHT22;67962;47.310;9.642;2023-03-04T15:06:19;11.50;46.70
78649;DHT22;67962;47.310;9.642;2023-03-04T15:08:46;11.50;46.50
78649;DHT22;67962;47.310;9.642;2023-03-04T15:11:25;11.50;47.50
78649;DHT22;67962;47.310;9.642;2023-03-04T15:13:53;11.70;46.50
78649;DHT22;67962;47.310;9.642;2023-03-04T15:16:22;11.60;46.40
78649;DHT22;67962;47.310;9.642;2023-03-04T15:18:55;11.50;47.00
78649;DHT22;67962;47.310;9.642;2023-03-04T15:21:36;11.50;47.50
78649;DHT22;67962;47.310;9.642;2023-03-04T15:24:04;11.40;46.80
78649;DHT22;67962;47.310;9.642;2023-03-04T15:26:32;11.40;47.00
78649;DHT22;67962;47.310;9.642;2023-03-04T15:28:58;11.40;47.80
78649;DHT22;67962;47.310;9.642;2023-03-04T15:31:24;11.40;48.20
78649;DHT22;67962;47.310;9.642;2023-03-04T15:33:51;11.50;47.90
78649;DHT22;67962;47.310;9.642;2023-03-04T15:36:22;11.50;47.00
78649;DHT22;67962;47.310;9.642;2023-03-04T15:38:50;11.60;47.50
78649;DHT22;67962;47.310;9.642;2023-03-04T15:41:23;11.60;46.40
78649;DHT22;67962;47.310;9.642;2023-03-04T15:43:50;11.60;47.20
78649;DHT22;67962;47.310;9.642;2023-03-04T15:46:16;11.60;48.00
78649;DHT22;67962;47.310;9.642;2023-03-04T15:48:42;11.60;47.50
78649;DHT22;67962;47.310;9.642;2023-03-04T15:51:20;11.70;46.50
78649;DHT22;67962;47.310;9.642;2023-03-04T15:53:54;11.60;47.20
78649;DHT22;67962;47.310;9.642;2023-03-04T15:56:23;11.60;47.40
78649;DHT22;67962;47.310;9.642;2023-03-04T15:59:12;11.60;46.70
78649;DHT22;67962;47.310;9.642;2023-03-04T16:01:39;11.60;46.80
78649;DHT22;67962;47.310;9.642;2023-03-04T16:04:08;11.60;46.70
78649;DHT22;67962;47.310;9.642;2023-03-04T16:06:36;11.50;47.00
78649;DHT22;67962;47.310;9.642;2023-03-04T16:09:01;11.50;47.10
78649;DHT22;67962;47.310;9.642;2023-03-04T16:11:29;11.50;47.40
78649;DHT22;67962;47.310;9.642;2023-03-04T16:13:57;11.50;47.10
78649;DHT22;67962;47.310;9.642;2023-03-04T16:16:23;11.50;47.50
78649;DHT22;67962;47.310;9.642;2023-03-04T16:18:49;11.60;47.70
78649;DHT22;67962;47.310;9.642;2023-03-04T16:21:19;11.60;47.40
78649;DHT22;67962;47.310;9.642;2023-03-04T16:23:49;11.60;47.00
78649;DHT22;67962;47.310;9.642;2023-03-04T16:26:20;11.60;46.40
78649;DHT22;67962;47.310;9.642;2023-03-04T16:28:46;11.50;46.70
78649;DHT22;67962;47.310;9.642;2023-03-04T16:31:14;11.50;46.80
78649;DHT22;67962;47.310;9.642;2023-03-04T16:33:41;11.30;47.30
78649;DHT22;67962;47.310;9.642;2023-03-04T16:38:46;11.20;48.10
78649;DHT22;67962;47.310;9.642;2023-03-04T16:41:15;11.20;48.10
78649;DHT22;67962;47.310;9.642;2023-03-04T16:43:42;11.10;47.80
78649;DHT22;67962;47.310;9.642;2023-03-04T16:46:11;11.00;47.70
78649;DHT22;67962;47.310;9.642;2023-03-04T16:48:37;10.90;48.30
78649;DHT22;67962;47.310;9.642;2023-03-04T16:51:11;10.80;48.00
78649;DHT22;67962;47.310;9.642;2023-03-04T16:53:39;10.80;48.20
78649;DHT22;67962;47.310;9.642;2023-03-04T16:56:10;10.70;48.40
78649;DHT22;67962;47.310;9.642;2023-03-04T16:58:36;10.70;48.20
78649;DHT22;67962;47.310;9.642;2023-03-04T17:01:03;10.60;48.60
78649;DHT22;67962;47.310;9.642;2023-03-04T17:03:30;10.50;49.00
78649;DHT22;67962;47.310;9.642;2023-03-04T17:05:57;10.40;49.80
78649;DHT22;67962;47.310;9.642;2023-03-04T17:08:23;10.30;50.30
78649;DHT22;67962;47.310;9.642;2023-03-04T17:10:49;10.30;50.20
78649;DHT22;67962;47.310;9.642;2023-03-04T17:13:15;10.30;49.50
78649;DHT22;67962;47.310;9.642;2023-03-04T17:15:41;10.20;49.90
78649;DHT22;67962;47.310;9.642;2023-03-04T17:18:07;10.20;57.90
78649;DHT22;67962;47.310;9.642;2023-03-04T17:20:34;10.80;53.20
78649;DHT22;67962;47.310;9.642;2023-03-04T17:23:00;10.80;49.50
78649;DHT22;67962;47.310;9.642;2023-03-04T17:25:25;10.60;49.20
78649;DHT22;67962;47.310;9.642;2023-03-04T17:27:51;10.30;49.90
78649;DHT22;67962;47.310;9.642;2023-03-04T17:30:18;10.10;50.40
78649;DHT22;67962;47.310;9.642;2023-03-04T17:32:45;10.00;51.10
78649;DHT22;67962;47.310;9.642;2023-03-04T17:35:11;9.90;51.60
78649;DHT22;67962;47.310;9.642;2023-03-04T17:37:37;9.80;52.00